Time;durP1;ratioP1;P1;durP2;ratioP2;P2;SDS_P1;SDS_P2;PMS_P1;PMS_P2;Temp;Humidity;BMP_temperature;BMP_pressure;BME280_temperature;BME280_humidity;BME280_pressure;Samples;Min_cycle;Max_cycle;Signal;HPM_P1;HPM_P2
2021/09/23 00:00:51;;;;;;;0.20;0.20;;;12.50;99.90;;;;;;4773246;30;20102;-90
2021/09/23 00:03:43;;;;;;;0.08;0.08;;;12.50;99.90;;;;;;4745832;30;20457;-91
2021/09/23 00:06:11;;;;;;;0.10;0.10;;;12.40;99.90;;;;;;4761777;30;20489;-91
2021/09/23 00:08:38;;;;;;;0.25;0.20;;;12.40;99.90;;;;;;4772871;30;20130;-90
2021/09/23 00:11:05;;;;;;;0.43;0.10;;;12.40;99.90;;;;;;4773176;30;20040;-90
2021/09/23 00:13:31;;;;;;;0.15;0.15;;;12.40;99.90;;;;;;4758236;30;20630;-90
2021/09/23 00:16:01;;;;;;;0.00;0.00;;;12.40;99.90;;;;;;4758419;30;20048;-91
2021/09/23 00:18:34;;;;;;;0.00;0.00;;;12.30;99.90;;;;;;4773507;30;20118;-91
2021/09/23 00:21:02;;;;;;;0.00;0.00;;;12.30;99.90;;;;;;4758724;30;20087;-90
2021/09/23 00:23:29;;;;;;;0.10;0.10;;;12.30;99.90;;;;;;4772830;30;20490;-91
2021/09/23 00:25:56;;;;;;;0.00;0.00;;;12.30;99.90;;;;;;4758482;30;20055;-90
2021/09/23 00:28:23;;;;;;;0.00;0.00;;;12.30;99.90;;;;;;4773071;30;20047;-92
2021/09/23 00:30:49;;;;;;;0.10;0.10;;;12.20;99.90;;;;;;4772625;30;20044;-91
2021/09/23 00:33:17;;;;;;;0.05;0.05;;;12.20;99.90;;;;;;4773018;30;20157;-90
2021/09/23 00:35:43;;;;;;;0.20;0.20;;;12.20;99.90;;;;;;4758051;30;20091;-90
2021/09/23 00:38:10;;;;;;;0.30;0.30;;;12.20;99.90;;;;;;4744399;30;20090;-90
2021/09/23 00:40:37;;;;;;;0.00;0.00;;;12.20;99.90;;;;;;4772857;30;20048;-90
2021/09/23 00:43:05;;;;;;;0.10;0.10;;;12.20;99.90;;;;;;4758179;30;20059;-90
2021/09/23 00:45:32;;;;;;;0.70;0.15;;;12.20;99.90;;;;;;4744169;30;20043;-90
2021/09/23 00:47:58;;;;;;;0.50;0.30;;;12.10;99.90;;;;;;4773021;30;20485;-90
2021/09/23 00:50:25;;;;;;;0.10;0.10;;;12.10;99.90;;;;;;4772671;30;20040;-90
2021/09/23 00:52:52;;;;;;;0.35;0.35;;;12.10;99.90;;;;;;4758557;30;20051;-90
2021/09/23 00:55:19;;;;;;;0.00;0.00;;;12.10;99.90;;;;;;4776115;30;20052;-91
2021/09/23 00:57:46;;;;;;;0.10;0.10;;;12.10;99.90;;;;;;4775853;30;20047;-90
2021/09/23 01:00:16;;;;;;;0.10;0.10;;;12.10;99.90;;;;;;4747062;30;20476;-91
2021/09/23 01:02:43;;;;;;;0.10;0.10;;;12.00;99.90;;;;;;4775449;30;20052;-90
2021/09/23 01:05:10;;;;;;;0.25;0.20;;;12.00;99.90;;;;;;4775974;30;20130;-90
2021/09/23 01:07:44;;;;;;;0.00;0.00;;;12.00;99.90;;;;;;4761344;30;20568;-90
2021/09/23 01:10:11;;;;;;;0.40;0.25;;;12.00;99.90;;;;;;4761245;30;20074;-91
2021/09/23 01:12:38;;;;;;;0.00;0.00;;;12.00;99.90;;;;;;4761118;30;20052;-90
2021/09/23 01:15:05;;;;;;;0.20;0.20;;;12.00;99.90;;;;;;4761539;30;20051;-89
2021/09/23 01:17:33;;;;;;;0.10;0.10;;;12.00;99.90;;;;;;4746471;30;20056;-91
2021/09/23 01:20:00;;;;;;;0.00;0.00;;;12.00;99.90;;;;;;4775364;30;20086;-91
2021/09/23 01:22:27;;;;;;;0.32;0.20;;;12.00;99.90;;;;;;4767675;30;20082;-91
2021/09/23 01:24:55;;;;;;;0.10;0.10;;;11.90;99.90;;;;;;4765879;30;20124;-91
2021/09/23 01:27:21;;;;;;;0.03;0.03;;;11.90;99.90;;;;;;4748076;30;20036;-90
2021/09/23 01:29:49;;;;;;;0.00;0.00;;;11.90;99.90;;;;;;4743325;30;20051;-91
2021/09/23 01:32:19;;;;;;;0.05;0.05;;;11.90;99.90;;;;;;4757765;30;20255;-90
2021/09/23 01:34:45;;;;;;;0.03;0.03;;;11.90;99.90;;;;;;4758014;30;20083;-91
2021/09/23 01:37:12;;;;;;;0.10;0.10;;;12.00;99.90;;;;;;4743374;30;20154;-91
2021/09/23 01:39:39;;;;;;;0.00;0.00;;;11.90;99.90;;;;;;4743127;30;20044;-90
2021/09/23 01:42:06;;;;;;;0.00;0.00;;;11.90;99.90;;;;;;4743296;30;20079;-90
2021/09/23 01:44:33;;;;;;;0.00;0.00;;;11.90;99.90;;;;;;4757441;30;20044;-91
2021/09/23 01:47:01;;;;;;;0.05;0.05;;;11.90;99.90;;;;;;4742995;30;20094;-91
2021/09/23 01:49:28;;;;;;;0.10;0.10;;;11.90;99.90;;;;;;4757635;30;20052;-90
2021/09/23 01:51:55;;;;;;;0.15;0.10;;;11.90;99.90;;;;;;4757068;30;20087;-91
2021/09/23 01:54:22;;;;;;;0.10;0.10;;;11.90;99.90;;;;;;4743024;30;20125;-90
2021/09/23 01:56:55;;;;;;;0.22;0.20;;;11.90;99.90;;;;;;4757223;30;20048;-91
2021/09/23 01:59:23;;;;;;;0.00;0.00;;;11.90;99.90;;;;;;4743442;30;20059;-91
2021/09/23 02:01:50;;;;;;;0.10;0.10;;;11.90;99.90;;;;;;4757158;30;20056;-90
2021/09/23 02:04:17;;;;;;;0.30;0.28;;;11.90;99.90;;;;;;4743237;30;20040;-90
2021/09/23 02:06:43;;;;;;;0.52;0.10;;;11.80;99.90;;;;;;4756327;30;20037;-91
2021/09/23 02:09:10;;;;;;;0.20;0.20;;;11.90;99.90;;;;;;4743401;30;20118;-91
2021/09/23 02:11:37;;;;;;;0.10;0.10;;;11.80;99.90;;;;;;4757025;30;20044;-90
2021/09/23 02:14:05;;;;;;;0.10;0.10;;;11.80;99.90;;;;;;4757029;30;20398;-90
2021/09/23 02:16:32;;;;;;;0.10;0.10;;;11.80;99.90;;;;;;4742421;30;20044;-90
2021/09/23 02:18:59;;;;;;;0.05;0.05;;;11.80;99.90;;;;;;4738958;30;20064;-90
2021/09/23 02:21:25;;;;;;;0.13;0.08;;;11.80;99.90;;;;;;4753693;30;20085;-91
2021/09/23 02:23:52;;;;;;;0.10;0.10;;;11.80;99.90;;;;;;4753505;30;20040;-91
2021/09/23 02:26:19;;;;;;;0.17;0.10;;;11.70;99.90;;;;;;4739420;30;20384;-91
2021/09/23 02:28:46;;;;;;;0.68;0.10;;;11.70;99.90;;;;;;4739242;30;20040;-90
2021/09/23 02:31:12;;;;;;;0.00;0.00;;;11.70;99.90;;;;;;4739309;30;20045;-92
2021/09/23 02:33:39;;;;;;;0.00;0.00;;;11.70;99.90;;;;;;4754154;30;20040;-92
2021/09/23 02:36:06;;;;;;;0.00;0.00;;;11.70;99.90;;;;;;4753709;30;20049;-91
2021/09/23 02:38:33;;;;;;;0.10;0.10;;;11.60;99.90;;;;;;4739381;30;20048;-91
2021/09/23 02:41:00;;;;;;;0.03;0.03;;;11.60;99.90;;;;;;4753524;30;20079;-92
2021/09/23 02:43:27;;;;;;;0.10;0.10;;;11.60;99.90;;;;;;4738909;30;20116;-91
2021/09/23 02:45:53;;;;;;;0.10;0.10;;;11.60;99.90;;;;;;4753097;30;20047;-92
2021/09/23 02:48:20;;;;;;;0.10;0.10;;;11.60;99.90;;;;;;4753644;30;20048;-91
2021/09/23 02:50:47;;;;;;;0.00;0.00;;;11.60;99.90;;;;;;4753391;30;20041;-91
2021/09/23 02:53:14;;;;;;;0.30;0.30;;;11.60;99.90;;;;;;4753931;30;20107;-91
2021/09/23 02:55:40;;;;;;;0.00;0.00;;;11.50;99.90;;;;;;4738859;30;20147;-90
2021/09/23 02:58:07;;;;;;;0.32;0.10;;;11.60;99.90;;;;;;4753046;30;20057;-91
2021/09/23 03:00:34;;;;;;;0.20;0.15;;;11.50;99.90;;;;;;4739020;30;20055;-91
2021/09/23 03:03:01;;;;;;;0.45;0.38;;;11.60;99.90;;;;;;4753115;30;20048;-91
2021/09/23 03:05:28;;;;;;;1.10;0.30;;;11.60;99.90;;;;;;4753188;30;20051;-91
2021/09/23 03:07:55;;;;;;;0.10;0.10;;;11.60;99.90;;;;;;4738704;30;20048;-91
2021/09/23 03:10:21;;;;;;;0.10;0.10;;;11.60;99.90;;;;;;4738630;30;20098;-91
2021/09/23 03:12:48;;;;;;;0.20;0.20;;;11.60;99.90;;;;;;4753134;30;20140;-90
2021/09/23 03:15:15;;;;;;;0.22;0.15;;;11.60;99.90;;;;;;4738469;30;20422;-90
2021/09/23 03:17:42;;;;;;;0.10;0.10;;;11.60;99.90;;;;;;4754569;30;20395;-91
2021/09/23 03:20:09;;;;;;;0.00;0.00;;;11.60;99.90;;;;;;4756073;30;20441;-91
2021/09/23 03:22:36;;;;;;;0.10;0.10;;;11.60;99.90;;;;;;4741361;30;20395;-92
2021/09/23 03:25:03;;;;;;;0.10;0.10;;;11.60;99.90;;;;;;4741158;30;20049;-91
2021/09/23 03:27:30;;;;;;;0.10;0.10;;;11.60;99.90;;;;;;4756139;30;20044;-91
2021/09/23 03:29:56;;;;;;;0.00;0.00;;;11.60;99.90;;;;;;4741064;30;20139;-90
2021/09/23 03:32:23;;;;;;;0.10;0.10;;;11.70;99.90;;;;;;4741541;30;20059;-91
2021/09/23 03:34:50;;;;;;;0.00;0.00;;;11.70;99.90;;;;;;4755952;30;20625;-91
2021/09/23 03:37:18;;;;;;;0.10;0.10;;;11.80;99.90;;;;;;4741208;30;20080;-91
2021/09/23 03:39:45;;;;;;;0.10;0.10;;;11.80;99.90;;;;;;4741170;30;20044;-91
2021/09/23 03:42:11;;;;;;;0.10;0.10;;;11.80;99.90;;;;;;4741336;30;20048;-90
2021/09/23 03:44:38;;;;;;;0.10;0.10;;;11.90;99.90;;;;;;4741395;30;20135;-90
2021/09/23 03:47:05;;;;;;;0.10;0.10;;;12.10;99.90;;;;;;4741174;30;20047;-92
2021/09/23 03:49:32;;;;;;;0.00;0.00;;;12.00;99.90;;;;;;4741247;30;20135;-91
2021/09/23 03:51:59;;;;;;;0.10;0.10;;;12.00;99.90;;;;;;4740883;30;20055;-91
2021/09/23 03:54:26;;;;;;;0.10;0.10;;;12.00;99.90;;;;;;4755579;30;20125;-91
2021/09/23 03:56:52;;;;;;;0.10;0.10;;;12.00;99.90;;;;;;4741386;30;20044;-91
2021/09/23 03:59:19;;;;;;;0.00;0.00;;;12.00;99.90;;;;;;4740822;30;20515;-91
2021/09/23 04:01:48;;;;;;;0.00;0.00;;;12.10;99.90;;;;;;4755738;30;20052;-91
2021/09/23 04:04:14;;;;;;;0.15;0.15;;;12.10;99.90;;;;;;4755196;30;20274;-91
2021/09/23 04:06:44;;;;;;;0.20;0.20;;;12.10;99.90;;;;;;4741289;30;20040;-91
2021/09/23 04:09:12;;;;;;;0.22;0.15;;;12.10;99.90;;;;;;4755732;30;20051;-90
2021/09/23 04:11:44;;;;;;;0.43;0.20;;;12.10;99.90;;;;;;4743033;30;20059;-90
2021/09/23 04:14:11;;;;;;;0.20;0.20;;;12.20;99.90;;;;;;4741254;30;20048;-89
2021/09/23 04:16:38;;;;;;;0.10;0.10;;;12.20;99.90;;;;;;4741453;30;20083;-92
2021/09/23 04:19:04;;;;;;;0.00;0.00;;;12.20;99.90;;;;;;4740353;30;20142;-90
2021/09/23 04:21:31;;;;;;;0.10;0.10;;;12.20;99.90;;;;;;4764365;30;20127;-89
2021/09/23 04:23:58;;;;;;;0.20;0.20;;;12.20;99.90;;;;;;4745365;30;20048;-90
2021/09/23 04:26:26;;;;;;;0.20;0.20;;;12.20;99.90;;;;;;4755435;30;20159;-90
2021/09/23 04:28:53;;;;;;;0.10;0.10;;;12.30;99.90;;;;;;4756513;30;20075;-91
2021/09/23 04:31:19;;;;;;;0.00;0.00;;;12.20;99.90;;;;;;4744100;30;20080;-90
2021/09/23 04:33:46;;;;;;;0.10;0.10;;;12.20;99.90;;;;;;4744630;30;20066;-91
2021/09/23 04:36:13;;;;;;;3.13;0.35;;;12.30;99.90;;;;;;4744043;30;20097;-91
2021/09/23 04:38:40;;;;;;;0.20;0.20;;;12.30;99.90;;;;;;4758684;30;20044;-91
2021/09/23 04:41:07;;;;;;;0.10;0.10;;;12.30;99.90;;;;;;4743932;30;20044;-91
2021/09/23 04:43:33;;;;;;;0.10;0.10;;;12.30;99.90;;;;;;4743928;30;20048;-90
2021/09/23 04:46:00;;;;;;;0.00;0.00;;;12.30;99.90;;;;;;4744123;30;20051;-90
2021/09/23 04:48:27;;;;;;;0.20;0.20;;;12.30;99.90;;;;;;4744511;30;20075;-91
2021/09/23 04:50:54;;;;;;;0.00;0.00;;;12.40;99.90;;;;;;4744206;30;20044;-90
2021/09/23 04:53:20;;;;;;;0.08;0.00;;;12.40;99.90;;;;;;4743744;30;20060;-90
2021/09/23 04:55:47;;;;;;;0.17;0.17;;;12.40;99.90;;;;;;4744399;30;20414;-91
2021/09/23 04:58:14;;;;;;;0.20;0.20;;;12.50;99.90;;;;;;4743571;30;20053;-90
2021/09/23 05:00:41;;;;;;;0.00;0.00;;;12.50;99.90;;;;;;4744151;30;20048;-90
2021/09/23 05:03:10;;;;;;;0.00;0.00;;;12.40;99.90;;;;;;4743556;30;20051;-90
2021/09/23 05:05:38;;;;;;;1.25;0.30;;;12.50;99.90;;;;;;4743968;30;20435;-91
2021/09/23 05:08:06;;;;;;;0.00;0.00;;;12.60;99.90;;;;;;4758102;30;20044;-90
2021/09/23 05:10:36;;;;;;;0.22;0.13;;;12.60;99.90;;;;;;4758539;30;20143;-91
2021/09/23 05:13:03;;;;;;;0.10;0.10;;;12.60;99.90;;;;;;4743761;30;20397;-88
2021/09/23 05:15:31;;;;;;;0.10;0.10;;;12.60;99.90;;;;;;4757906;30;20054;-90
2021/09/23 05:17:58;;;;;;;0.00;0.00;;;12.60;99.90;;;;;;4757668;30;20064;-92
2021/09/23 05:20:25;;;;;;;0.45;0.20;;;12.60;99.90;;;;;;4757567;30;20087;-90
2021/09/23 05:22:51;;;;;;;0.20;0.20;;;12.70;99.90;;;;;;4743352;30;20040;-91
2021/09/23 05:25:18;;;;;;;0.10;0.10;;;12.70;99.90;;;;;;4742990;30;20083;-90
2021/09/23 05:27:45;;;;;;;0.10;0.10;;;12.70;99.90;;;;;;4742821;30;20481;-90
2021/09/23 05:30:12;;;;;;;0.00;0.00;;;12.70;99.90;;;;;;4757132;30;20044;-90
2021/09/23 05:32:40;;;;;;;0.00;0.00;;;12.70;99.90;;;;;;4743278;30;20105;-90
2021/09/23 05:35:08;;;;;;;0.10;0.10;;;12.70;99.90;;;;;;4754260;30;20131;-90
2021/09/23 05:37:35;;;;;;;0.00;0.00;;;12.80;99.90;;;;;;4760737;30;20047;-90
2021/09/23 05:40:02;;;;;;;0.15;0.15;;;12.80;99.90;;;;;;4741957;30;20129;-90
2021/09/23 05:42:29;;;;;;;0.10;0.10;;;12.80;99.90;;;;;;4754472;30;20189;-90
2021/09/23 05:44:56;;;;;;;0.43;0.30;;;12.80;99.90;;;;;;4760796;30;20134;-90
2021/09/23 05:47:23;;;;;;;0.20;0.20;;;12.80;99.90;;;;;;4745752;30;20039;-91
2021/09/23 05:49:49;;;;;;;0.10;0.10;;;12.80;99.90;;;;;;4775417;30;20134;-90
2021/09/23 05:52:16;;;;;;;0.00;0.00;;;12.90;99.90;;;;;;4745728;30;20159;-90
2021/09/23 05:54:44;;;;;;;0.00;0.00;;;12.90;99.90;;;;;;4746855;30;20044;-90
2021/09/23 05:57:11;;;;;;;0.00;0.00;;;13.00;99.90;;;;;;4747497;30;20080;-90
2021/09/23 05:59:38;;;;;;;0.10;0.10;;;12.90;99.90;;;;;;4743270;30;20530;-90
2021/09/23 06:02:04;;;;;;;0.10;0.10;;;13.00;99.90;;;;;;4742612;30;20110;-90
2021/09/23 06:04:31;;;;;;;0.00;0.00;;;13.00;99.90;;;;;;4742462;30;20205;-90
2021/09/23 06:06:58;;;;;;;0.20;0.20;;;13.00;99.90;;;;;;4743106;30;20080;-90
2021/09/23 06:09:24;;;;;;;0.08;0.08;;;13.10;99.90;;;;;;4742484;30;20526;-94
2021/09/23 06:11:52;;;;;;;0.05;0.05;;;13.10;99.90;;;;;;4759423;30;20066;-93
2021/09/23 06:14:19;;;;;;;0.10;0.10;;;12.90;99.90;;;;;;4767735;30;20052;-94
2021/09/23 06:16:46;;;;;;;0.10;0.05;;;13.20;99.90;;;;;;4775007;30;20051;-95
2021/09/23 06:19:13;;;;;;;0.00;0.00;;;13.20;99.90;;;;;;4762026;30;20071;-94
2021/09/23 06:21:40;;;;;;;0.00;0.00;;;13.20;99.90;;;;;;4758084;30;20052;-94
2021/09/23 06:24:07;;;;;;;0.10;0.10;;;13.30;99.90;;;;;;4757173;30;20465;-96
2021/09/23 06:26:34;;;;;;;0.20;0.20;;;13.40;99.90;;;;;;4756477;30;20089;-94
2021/09/23 06:29:01;;;;;;;0.03;0.03;;;13.40;99.90;;;;;;4757363;30;20041;-95
2021/09/23 06:31:28;;;;;;;0.00;0.00;;;13.40;99.90;;;;;;4761457;30;20040;-91
2021/09/23 06:33:58;;;;;;;0.05;0.05;;;13.50;99.90;;;;;;4775641;30;20051;-95
2021/09/23 06:36:26;;;;;;;0.00;0.00;;;13.50;99.90;;;;;;4757518;30;20109;-94
2021/09/23 06:38:53;;;;;;;0.28;0.10;;;13.50;99.90;;;;;;4743294;30;20048;-93
2021/09/23 06:41:20;;;;;;;0.38;0.10;;;13.50;99.90;;;;;;4756447;30;20401;-93
2021/09/23 06:43:51;;;;;;;0.08;0.03;;;13.60;99.90;;;;;;4756904;30;20067;-93
2021/09/23 06:46:22;;;;;;;0.47;0.30;;;13.60;99.90;;;;;;4756190;30;20043;-93
2021/09/23 06:48:50;;;;;;;0.43;0.20;;;13.60;99.90;;;;;;4771634;30;20501;-94
2021/09/23 06:55:42;;;;;;;0.10;0.10;;;13.60;99.90;;;;;;4756310;30;20513;-95
2021/09/23 06:58:11;;;;;;;0.20;0.20;;;13.60;99.90;;;;;;4722198;30;20057;-95
2021/09/23 07:00:41;;;;;;;0.10;0.10;;;13.70;99.90;;;;;;4721207;30;20178;-94
2021/09/23 07:03:08;;;;;;;0.10;0.10;;;13.60;99.90;;;;;;4720804;30;20502;-92
2021/09/23 07:09:11;;;;;;;0.17;0.17;;;13.40;99.90;;;;;;4790505;30;20185;-92
2021/09/23 07:12:27;;;;;;;;;;;;;;;;;;;;;
2021/09/23 07:15:30;;;;;;;0.10;0.10;;;13.90;99.90;;;;;;4746502;30;20053;-96
2021/09/23 07:43:16;;;;;;;0.00;0.00;;;14.90;99.90;;;;;;4784671;30;20080;-92
2021/09/23 07:45:43;;;;;;;0.20;0.20;;;15.00;99.90;;;;;;4773519;30;20130;-92
2021/09/23 07:48:10;;;;;;;0.00;0.00;;;15.00;99.90;;;;;;4786319;30;20043;-90
2021/09/23 07:50:37;;;;;;;0.70;0.15;;;14.90;99.90;;;;;;4790092;30;20054;-88
2021/09/23 07:53:06;;;;;;;0.38;0.20;;;15.00;99.90;;;;;;4791802;30;20043;-92
2021/09/23 07:55:33;;;;;;;0.52;0.35;;;15.00;99.90;;;;;;4805882;30;20496;-92
2021/09/23 07:58:03;;;;;;;0.10;0.10;;;15.00;99.90;;;;;;4806246;30;20043;-90
2021/09/23 08:00:30;;;;;;;0.10;0.10;;;15.00;99.90;;;;;;4806111;29;20051;-92
2021/09/23 08:02:57;;;;;;;1.35;0.43;;;15.10;99.90;;;;;;4805544;30;20058;-90
2021/09/23 08:05:28;;;;;;;1.92;0.45;;;15.20;99.90;;;;;;4809759;30;20040;-88
2021/09/23 08:07:56;;;;;;;0.20;0.10;;;15.20;99.90;;;;;;4809300;30;20050;-89
2021/09/23 08:10:23;;;;;;;0.38;0.17;;;15.20;99.90;;;;;;4808983;29;20061;-88
2021/09/23 08:12:50;;;;;;;0.15;0.10;;;15.30;99.90;;;;;;4809259;29;20051;-88
2021/09/23 08:15:18;;;;;;;0.17;0.17;;;15.30;99.90;;;;;;4809157;30;20078;-88
2021/09/23 08:17:44;;;;;;;0.08;0.08;;;15.40;99.90;;;;;;4809042;30;20054;-90
2021/09/23 08:20:12;;;;;;;0.65;0.32;;;15.50;99.90;;;;;;4809597;29;20051;-88
2021/09/23 08:22:39;;;;;;;0.50;0.05;;;15.60;99.90;;;;;;4808829;30;20055;-88
2021/09/23 08:25:07;;;;;;;0.52;0.20;;;15.70;99.90;;;;;;4809055;30;20507;-89
2021/09/23 08:27:34;;;;;;;0.17;0.15;;;15.80;99.90;;;;;;4808719;30;20111;-88
2021/09/23 08:30:01;;;;;;;0.10;0.10;;;15.80;99.90;;;;;;4808867;29;20126;-87
2021/09/23 08:32:27;;;;;;;0.47;0.25;;;15.90;99.90;;;;;;4809136;30;20099;-93
2021/09/23 08:34:54;;;;;;;1.30;0.57;;;16.00;99.90;;;;;;4808819;30;20051;-93
2021/09/23 08:37:21;;;;;;;1.55;0.43;;;16.00;99.90;;;;;;4809157;29;20047;-91
2021/09/23 08:39:48;;;;;;;0.20;0.20;;;16.00;99.90;;;;;;4808789;30;20193;-93
2021/09/23 08:42:15;;;;;;;0.30;0.25;;;16.00;99.90;;;;;;4808774;30;20059;-93
2021/09/23 08:44:42;;;;;;;0.77;0.50;;;16.00;99.90;;;;;;4808889;30;20481;-94
2021/09/23 08:47:09;;;;;;;0.10;0.10;;;16.00;99.90;;;;;;4808563;30;20138;-94
2021/09/23 08:49:37;;;;;;;0.25;0.20;;;16.10;99.90;;;;;;4808987;30;20043;-95
2021/09/23 08:52:03;;;;;;;0.30;0.20;;;16.20;99.90;;;;;;4794253;30;20047;-94
2021/09/23 08:54:30;;;;;;;0.20;0.20;;;16.30;99.90;;;;;;4808865;30;20646;-94
2021/09/23 08:57:01;;;;;;;0.17;0.13;;;16.40;99.90;;;;;;4808636;30;20082;-94
2021/09/23 08:59:29;;;;;;;0.13;0.10;;;16.40;99.90;;;;;;4809089;30;20043;-94
2021/09/23 09:01:56;;;;;;;0.10;0.10;;;16.50;99.90;;;;;;4808588;30;20056;-95
2021/09/23 09:04:32;;;;;;;0.22;0.22;;;16.50;99.90;;;;;;4809067;30;20039;-96
2021/09/23 09:07:01;;;;;;;0.05;0.05;;;16.60;99.90;;;;;;4808382;30;20066;-94
2021/09/23 09:09:29;;;;;;;0.73;0.20;;;16.70;99.90;;;;;;4808851;30;20469;-90
2021/09/23 09:11:56;;;;;;;1.85;0.20;;;16.80;99.90;;;;;;4808050;30;20047;-90
2021/09/23 09:14:27;;;;;;;0.47;0.10;;;17.00;99.90;;;;;;4809724;30;20047;-92
2021/09/23 09:17:04;;;;;;;0.03;0.03;;;17.00;99.90;;;;;;4809894;30;20054;-90
2021/09/23 09:19:51;;;;;;;0.00;0.00;;;17.10;99.90;;;;;;4808994;30;20047;-90
2021/09/23 09:22:21;;;;;;;0.30;0.15;;;17.20;99.90;;;;;;4809395;30;20047;-92
2021/09/23 09:25:09;;;;;;;5.28;0.28;;;17.20;99.90;;;;;;4809310;30;20039;-95
2021/09/23 09:27:49;;;;;;;0.00;0.00;;;17.30;99.90;;;;;;4791650;30;20116;-96
2021/09/23 09:30:22;;;;;;;0.20;0.13;;;17.30;99.90;;;;;;4808770;30;20409;-95
2021/09/23 09:32:51;;;;;;;0.10;0.10;;;17.40;99.90;;;;;;4823093;30;20051;-95
2021/09/23 13:55:42;;;;;;;0.50;0.10;;;17.40;99.90;;;;;;653618;24;21639;-94
2021/09/23 13:58:09;;;;;;;0.10;0.10;;;17.40;99.90;;;;;;4783380;30;20051;-92
2021/09/23 14:00:36;;;;;;;0.10;0.10;;;17.40;99.90;;;;;;4791342;29;20468;-93
2021/09/23 14:03:04;;;;;;;0.30;0.17;;;17.40;99.90;;;;;;4786736;30;20081;-94
2021/09/23 14:05:31;;;;;;;0.20;0.20;;;17.30;99.90;;;;;;4776346;30;20105;-93
2021/09/23 14:07:58;;;;;;;0.10;0.10;;;17.30;99.90;;;;;;4791607;30;20044;-94
2021/09/23 14:10:25;;;;;;;0.20;0.13;;;17.10;99.90;;;;;;4794662;30;20051;-93
2021/09/23 14:12:52;;;;;;;0.25;0.20;;;17.00;99.90;;;;;;4794659;30;20086;-94
2021/09/23 14:15:21;;;;;;;0.10;0.10;;;16.90;99.90;;;;;;4795438;30;20141;-93
2021/09/23 14:17:49;;;;;;;0.15;0.13;;;16.90;99.90;;;;;;4795081;30;20047;-93
2021/09/23 14:20:16;;;;;;;0.10;0.10;;;16.90;99.90;;;;;;4795481;30;20526;-94
2021/09/23 14:22:43;;;;;;;0.10;0.10;;;16.80;99.90;;;;;;4795994;30;20039;-93
2021/09/23 14:25:12;;;;;;;1.95;0.20;;;16.90;99.90;;;;;;4794465;29;20413;-91
2021/09/23 14:27:40;;;;;;;0.10;0.10;;;16.90;99.90;;;;;;4792705;29;20059;-92
2021/09/23 14:30:09;;;;;;;0.10;0.10;;;16.90;99.90;;;;;;4808609;30;20108;-93
2021/09/23 14:32:36;;;;;;;0.10;0.10;;;16.90;99.90;;;;;;4793132;30;20564;-93
2021/09/23 14:35:03;;;;;;;0.45;0.20;;;16.80;99.90;;;;;;4793599;30;20082;-94
2021/09/23 14:37:30;;;;;;;0.30;0.20;;;16.90;99.90;;;;;;4780093;30;20043;-95
2021/09/23 14:40:00;;;;;;;0.03;0.03;;;16.90;99.90;;;;;;4790512;30;20047;-95
2021/09/23 14:42:28;;;;;;;0.10;0.10;;;16.90;99.90;;;;;;4786018;30;20054;-94
2021/09/23 14:44:55;;;;;;;0.10;0.10;;;16.90;99.90;;;;;;4792387;30;20097;-95
2021/09/23 14:47:22;;;;;;;0.00;0.00;;;16.90;99.90;;;;;;4792124;30;20039;-95
2021/09/23 14:49:49;;;;;;;0.10;0.10;;;16.90;99.90;;;;;;4780733;30;20052;-95
2021/09/23 14:52:16;;;;;;;0.00;0.00;;;17.00;99.90;;;;;;4776661;30;20153;-94
2021/09/23 14:54:43;;;;;;;0.10;0.10;;;17.00;99.90;;;;;;4793511;30;20131;-95
2021/09/23 14:57:10;;;;;;;0.15;0.13;;;16.90;99.90;;;;;;4793440;30;20511;-94
2021/09/23 14:59:38;;;;;;;1.10;0.22;;;16.80;99.90;;;;;;4808521;30;20051;-95
2021/09/23 15:02:12;;;;;;;0.10;0.10;;;16.80;99.90;;;;;;4797089;30;20054;-96
2021/09/23 15:04:39;;;;;;;0.57;0.10;;;16.80;99.90;;;;;;4816302;30;20146;-89
2021/09/23 15:07:06;;;;;;;0.10;0.10;;;16.80;99.90;;;;;;4785827;30;20098;-92
2021/09/23 15:09:34;;;;;;;0.05;0.05;;;16.80;99.90;;;;;;4785622;30;20077;-96
2021/09/23 15:12:04;;;;;;;0.03;0.03;;;16.80;99.90;;;;;;4781597;30;20060;-94
2021/09/23 15:14:31;;;;;;;0.10;0.10;;;16.70;99.90;;;;;;4798024;30;20055;-94
2021/09/23 15:16:58;;;;;;;0.10;0.10;;;16.60;99.90;;;;;;4796231;30;20055;-95
2021/09/23 15:19:25;;;;;;;0.00;0.00;;;16.40;99.90;;;;;;4783970;30;20109;-93
2021/09/23 17:18:37;;;;;;;0.00;0.00;;;15.00;99.90;;;;;;2912537;24;21670;-84
2021/09/23 17:21:04;;;;;;;0.00;0.00;;;14.90;99.90;;;;;;4785134;30;20064;-96
2021/09/23 17:23:40;;;;;;;0.20;0.10;;;14.90;99.90;;;;;;4801187;30;20051;-96
2021/09/23 18:13:57;;;;;;;0.28;0.10;;;14.80;99.90;;;;;;4803587;30;20125;-95
2021/09/23 18:16:23;;;;;;;0.10;0.10;;;14.80;99.90;;;;;;4789883;30;20043;-94
2021/09/23 18:18:51;;;;;;;0.00;0.00;;;14.70;99.90;;;;;;4788790;30;20096;-93
2021/09/23 18:21:18;;;;;;;0.10;0.10;;;14.70;99.90;;;;;;4777819;30;20454;-94
2021/09/23 18:23:45;;;;;;;0.00;0.00;;;14.60;99.90;;;;;;4792164;30;20130;-94
2021/09/23 18:26:12;;;;;;;0.00;0.00;;;14.60;99.90;;;;;;4777735;30;20051;-93
2021/09/23 18:28:39;;;;;;;0.00;0.00;;;14.50;99.90;;;;;;4784222;30;20052;-93
2021/09/23 18:31:06;;;;;;;0.05;0.05;;;14.50;99.90;;;;;;4775455;30;20047;-94
2021/09/23 18:33:33;;;;;;;0.00;0.00;;;14.40;99.90;;;;;;4759353;30;20390;-94
2021/09/23 18:36:00;;;;;;;0.00;0.00;;;14.40;99.90;;;;;;4790416;30;20047;-94
2021/09/23 18:38:27;;;;;;;0.05;0.05;;;14.50;99.90;;;;;;4792413;30;20050;-93
2021/09/23 18:40:53;;;;;;;0.00;0.00;;;14.50;99.90;;;;;;4791888;30;20051;-94
2021/09/23 18:43:20;;;;;;;0.00;0.00;;;14.50;99.90;;;;;;4792000;30;20084;-95
2021/09/23 18:45:47;;;;;;;0.20;0.10;;;14.50;99.90;;;;;;4791905;30;20138;-94
2021/09/23 18:48:14;;;;;;;0.10;0.10;;;14.50;99.90;;;;;;4789898;30;20552;-94
2021/09/23 18:50:41;;;;;;;0.00;0.00;;;14.50;99.90;;;;;;4759546;30;20044;-95
2021/09/23 18:53:08;;;;;;;0.00;0.00;;;14.50;99.90;;;;;;4781116;30;20046;-94
2021/09/23 18:55:35;;;;;;;0.03;0.03;;;14.50;99.90;;;;;;4792308;30;20043;-94
2021/09/23 18:58:04;;;;;;;0.05;0.05;;;14.50;99.90;;;;;;4792065;30;20108;-94
2021/09/23 19:00:31;;;;;;;0.00;0.00;;;14.40;99.90;;;;;;4791955;30;20074;-94
2021/09/23 19:02:58;;;;;;;0.00;0.00;;;14.40;99.90;;;;;;4776636;30;20134;-94
2021/09/23 19:05:25;;;;;;;0.00;0.00;;;14.10;99.90;;;;;;4791511;30;20097;-94
2021/09/23 19:07:52;;;;;;;0.00;0.00;;;14.40;99.90;;;;;;4791308;30;20082;-94
2021/09/23 19:10:19;;;;;;;0.00;0.00;;;14.40;99.90;;;;;;4791477;30;20081;-94
2021/09/23 19:12:46;;;;;;;0.00;0.00;;;14.40;99.90;;;;;;4776596;30;20059;-93
2021/09/23 19:15:14;;;;;;;0.03;0.03;;;14.30;99.90;;;;;;4762524;30;20138;-95
2021/09/23 19:17:48;;;;;;;0.00;0.00;;;14.30;99.90;;;;;;4791610;30;20094;-94
2021/09/23 19:20:19;;;;;;;0.08;0.08;;;14.30;99.90;;;;;;4761086;30;20128;-95
2021/09/23 19:22:46;;;;;;;0.10;0.10;;;14.30;99.90;;;;;;4773436;30;20054;-95
2021/09/23 19:25:15;;;;;;;0.00;0.00;;;14.30;99.90;;;;;;4773481;30;20375;-94
2021/09/23 19:27:43;;;;;;;0.00;0.00;;;14.30;99.90;;;;;;4763915;29;20106;-94
2021/09/23 19:30:11;;;;;;;0.43;0.10;;;14.30;99.90;;;;;;4791060;30;20138;-94
2021/09/23 19:32:38;;;;;;;0.00;0.00;;;14.30;99.90;;;;;;4788555;30;20112;-94
2021/09/23 19:35:07;;;;;;;0.00;0.00;;;14.30;99.90;;;;;;4789085;30;20108;-94
2021/09/23 19:37:36;;;;;;;0.00;0.00;;;14.30;99.90;;;;;;4791251;30;20043;-95
2021/09/23 19:40:05;;;;;;;0.00;0.00;;;14.30;99.90;;;;;;4790914;30;20404;-96
2021/09/23 19:42:32;;;;;;;0.00;0.00;;;14.30;99.90;;;;;;4795774;30;20050;-94
2021/09/23 19:45:00;;;;;;;0.00;0.00;;;14.20;99.90;;;;;;4790556;30;20043;-95
2021/09/23 19:47:26;;;;;;;0.00;0.00;;;14.20;99.90;;;;;;4792399;30;20389;-95
2021/09/23 19:49:53;;;;;;;0.32;0.15;;;14.20;99.90;;;;;;4792387;30;20043;-94
2021/09/23 19:52:20;;;;;;;0.00;0.00;;;14.20;99.90;;;;;;4791165;30;20124;-96
2021/09/23 19:54:47;;;;;;;0.00;0.00;;;14.20;99.90;;;;;;4795424;30;20119;-96
2021/09/23 19:57:14;;;;;;;0.00;0.00;;;14.10;99.90;;;;;;4794479;30;20044;-96
2021/09/23 19:59:41;;;;;;;0.00;0.00;;;14.10;99.90;;;;;;4792139;30;20083;-95
2021/09/23 20:02:08;;;;;;;0.00;0.00;;;14.10;99.90;;;;;;4776759;30;20076;-92
2021/09/23 20:04:35;;;;;;;0.00;0.00;;;14.00;99.90;;;;;;4765872;30;20044;-93
2021/09/23 20:07:02;;;;;;;0.28;0.15;;;14.00;99.90;;;;;;4773614;30;20078;-93
2021/09/23 20:09:29;;;;;;;0.00;0.00;;;14.00;99.90;;;;;;4758906;30;20047;-94
2021/09/23 20:11:56;;;;;;;0.00;0.00;;;13.90;99.90;;;;;;4758399;30;20064;-94
2021/09/23 20:14:22;;;;;;;0.08;0.08;;;13.90;99.90;;;;;;4773289;30;20456;-95
2021/09/23 20:16:49;;;;;;;0.00;0.00;;;13.90;99.90;;;;;;4773280;30;20113;-95
2021/09/23 20:19:17;;;;;;;0.10;0.10;;;13.90;99.90;;;;;;4781756;30;20082;-95
2021/09/23 20:21:44;;;;;;;0.00;0.00;;;13.90;99.90;;;;;;4790914;30;20047;-95
2021/09/23 20:24:10;;;;;;;0.00;0.00;;;13.90;99.90;;;;;;4790431;30;20043;-93
2021/09/23 20:26:37;;;;;;;0.00;0.00;;;13.90;99.90;;;;;;4790678;30;20046;-94
2021/09/23 20:29:04;;;;;;;0.00;0.00;;;13.90;99.90;;;;;;4775837;30;20468;-94